Time;durP1;ratioP1;P1;durP2;ratioP2;P2;SDS_P1;SDS_P2;PMS_P1;PMS_P2;Temp;Humidity;BMP_temperature;BMP_pressure;BME280_temperature;BME280_humidity;BME280_pressure;Samples;Min_cycle;Max_cycle;Signal;HPM_P1;HPM_P2
2022/10/11 00:00:00;;;;;;;2.7;1.9;;;;;;;8.5;100.0;102200;;;;
2022/10/11 00:01:00;;;;;;;2.7;1.9;;;;;;;8.5;100.0;102200;;;;
2022/10/11 00:02:00;;;;;;;2.7;1.9;;;;;;;8.5;100.0;102200;;;;
2022/10/11 00:03:00;;;;;;;2.7;1.9;;;;;;;8.5;100.0;102210;;;;
2022/10/11 00:04:00;;;;;;;2.7;1.9;;;;;;;8.5;100.0;102210;;;;
2022/10/11 00:05:00;;;;;;;2.7;1.9;;;;;;;8.5;100.0;102210;;;;
2022/10/11 00:06:02;;;;;;;2.7;1.9;;;;;;;8.5;100.0;102210;;;;
2022/10/11 00:07:00;;;;;;;2.7;1.9;;;;;;;8.4;100.0;102210;;;;
2022/10/11 00:08:00;;;;;;;2.7;1.9;;;;;;;8.4;100.0;102210;;;;
2022/10/11 00:09:00;;;;;;;2.7;1.9;;;;;;;8.4;100.0;102210;;;;
2022/10/11 00:10:00;;;;;;;2.7;1.9;;;;;;;8.4;100.0;102210;;;;
2022/10/11 00:11:02;;;;;;;1.2;1.2;;;;;;;8.4;100.0;102210;;;;
2022/10/11 00:12:00;;;;;;;1.2;1.2;;;;;;;8.4;100.0;102210;;;;
2022/10/11 00:13:00;;;;;;;1.2;1.2;;;;;;;8.4;100.0;102210;;;;
2022/10/11 00:14:00;;;;;;;1.2;1.2;;;;;;;8.4;100.0;102210;;;;
2022/10/11 00:15:00;;;;;;;1.2;1.2;;;;;;;8.3;100.0;102210;;;;
2022/10/11 00:16:00;;;;;;;1.2;1.2;;;;;;;8.3;100.0;102210;;;;
2022/10/11 00:17:00;;;;;;;1.2;1.2;;;;;;;8.2;100.0;102210;;;;
2022/10/11 00:18:06;;;;;;;1.2;1.2;;;;;;;8.2;100.0;102210;;;;
2022/10/11 00:19:00;;;;;;;1.2;1.2;;;;;;;8.0;100.0;102220;;;;
2022/10/11 00:20:00;;;;;;;1.2;1.2;;;;;;;8.0;100.0;102220;;;;
2022/10/11 00:21:01;;;;;;;1.2;1.2;;;;;;;8.0;100.0;102220;;;;
2022/10/11 00:22:00;;;;;;;1.2;1.2;;;;;;;8.0;100.0;102220;;;;
2022/10/11 00:23:00;;;;;;;1.2;1.2;;;;;;;8.1;100.0;102220;;;;
2022/10/11 00:24:00;;;;;;;1.2;1.2;;;;;;;8.1;100.0;102220;;;;
2022/10/11 00:25:00;;;;;;;1.2;1.2;;;;;;;8.2;100.0;102220;;;;
2022/10/11 00:26:01;;;;;;;1.2;1.2;;;;;;;8.2;100.0;102220;;;;
2022/10/11 00:27:00;;;;;;;1.2;1.2;;;;;;;8.2;100.0;102220;;;;
2022/10/11 00:28:00;;;;;;;1.2;1.2;;;;;;;8.2;100.0;102220;;;;
2022/10/11 00:29:00;;;;;;;1.2;1.2;;;;;;;8.2;100.0;102220;;;;
2022/10/11 00:30:00;;;;;;;1.2;1.2;;;;;;;8.2;100.0;102220;;;;
2022/10/11 00:31:00;;;;;;;1.2;1.2;;;;;;;8.2;100.0;102220;;;;
2022/10/11 00:32:00;;;;;;;1.2;1.2;;;;;;;8.2;100.0;102220;;;;
2022/10/11 00:33:00;;;;;;;1.2;1.2;;;;;;;8.3;100.0;102220;;;;
2022/10/11 00:34:00;;;;;;;1.2;1.2;;;;;;;8.3;100.0;102220;;;;
2022/10/11 00:35:05;;;;;;;1.2;1.2;;;;;;;8.3;100.0;102220;;;;
2022/10/11 00:36:00;;;;;;;1.2;1.2;;;;;;;8.3;100.0;102220;;;;
2022/10/11 00:37:00;;;;;;;1.2;1.2;;;;;;;8.2;100.0;102220;;;;
2022/10/11 00:38:00;;;;;;;1.2;1.2;;;;;;;8.2;100.0;102220;;;;
2022/10/11 00:39:00;;;;;;;1.2;1.2;;;;;;;8.2;100.0;102220;;;;
2022/10/11 00:40:00;;;;;;;1.2;1.2;;;;;;;8.2;100.0;102220;;;;
2022/10/11 00:41:00;;;;;;;1.2;1.2;;;;;;;8.1;100.0;102220;;;;
2022/10/11 00:42:00;;;;;;;1.2;1.2;;;;;;;8.1;100.0;102220;;;;
2022/10/11 00:43:00;;;;;;;1.2;1.2;;;;;;;8.2;100.0;102220;;;;
2022/10/11 00:44:10;;;;;;;1.2;1.2;;;;;;;8.2;100.0;102220;;;;
2022/10/11 00:45:10;;;;;;;1.2;1.2;;;;;;;8.1;100.0;102220;;;;
2022/10/11 00:46:03;;;;;;;1.2;1.2;;;;;;;8.1;100.0;102220;;;;
2022/10/11 00:47:02;;;;;;;1.2;1.2;;;;;;;8.2;100.0;102220;;;;
2022/10/11 00:48:07;;;;;;;1.2;1.2;;;;;;;8.2;100.0;102220;;;;
2022/10/11 00:49:03;;;;;;;1.2;1.2;;;;;;;8.2;100.0;102220;;;;
2022/10/11 00:50:00;;;;;;;1.2;1.2;;;;;;;8.2;100.0;102220;;;;
2022/10/11 00:51:02;;;;;;;1.3;1.3;;;;;;;8.2;100.0;102220;;;;
2022/10/11 00:52:04;;;;;;;1.3;1.3;;;;;;;8.2;100.0;102220;;;;
2022/10/11 00:53:02;;;;;;;1.3;1.3;;;;;;;8.2;100.0;102230;;;;
2022/10/11 00:54:01;;;;;;;1.3;1.3;;;;;;;8.2;100.0;102230;;;;
2022/10/11 00:55:03;;;;;;;1.3;1.3;;;;;;;8.1;100.0;102230;;;;
2022/10/11 00:56:03;;;;;;;1.3;1.3;;;;;;;8.1;100.0;102230;;;;
2022/10/11 00:57:02;;;;;;;1.3;1.3;;;;;;;8.1;100.0;102230;;;;
2022/10/11 00:58:00;;;;;;;1.3;1.3;;;;;;;8.1;100.0;102230;;;;
2022/10/11 00:59:01;;;;;;;1.3;1.3;;;;;;;8.0;100.0;102230;;;;
2022/10/11 01:00:00;;;;;;;1.3;1.3;;;;;;;8.0;100.0;102230;;;;
2022/10/11 01:01:00;;;;;;;1.3;1.3;;;;;;;8.0;100.0;102230;;;;
2022/10/11 01:02:00;;;;;;;1.3;1.3;;;;;;;8.0;100.0;102230;;;;
2022/10/11 01:03:01;;;;;;;1.3;1.3;;;;;;;7.9;100.0;102230;;;;
2022/10/11 01:04:00;;;;;;;1.3;1.3;;;;;;;7.9;100.0;102230;;;;
2022/10/11 01:05:10;;;;;;;1.3;1.3;;;;;;;7.9;100.0;102240;;;;
2022/10/11 01:06:02;;;;;;;1.3;1.3;;;;;;;7.9;100.0;102240;;;;
2022/10/11 01:07:00;;;;;;;1.3;1.3;;;;;;;7.9;100.0;102240;;;;
2022/10/11 01:08:01;;;;;;;1.3;1.3;;;;;;;7.9;100.0;102240;;;;
2022/10/11 01:09:00;;;;;;;1.3;1.3;;;;;;;7.9;100.0;102240;;;;
2022/10/11 01:10:00;;;;;;;1.3;1.3;;;;;;;7.9;100.0;102240;;;;
2022/10/11 01:11:00;;;;;;;1.5;1.5;;;;;;;7.9;100.0;102240;;;;
2022/10/11 01:12:01;;;;;;;1.5;1.5;;;;;;;7.9;100.0;102240;;;;
2022/10/11 01:13:03;;;;;;;1.5;1.5;;;;;;;7.9;100.0;102240;;;;
2022/10/11 01:14:10;;;;;;;1.5;1.5;;;;;;;7.9;100.0;102240;;;;
2022/10/11 01:15:04;;;;;;;1.5;1.5;;;;;;;7.9;100.0;102240;;;;
2022/10/11 01:16:08;;;;;;;1.5;1.5;;;;;;;7.9;100.0;102240;;;;
2022/10/11 01:17:10;;;;;;;1.5;1.5;;;;;;;7.9;100.0;102250;;;;
2022/10/11 01:18:04;;;;;;;1.5;1.5;;;;;;;7.9;100.0;102250;;;;
2022/10/11 01:19:07;;;;;;;1.5;1.5;;;;;;;7.9;100.0;102240;;;;
2022/10/11 01:20:10;;;;;;;1.5;1.5;;;;;;;7.9;100.0;102240;;;;
2022/10/11 01:21:01;;;;;;;1.5;1.5;;;;;;;7.8;100.0;102240;;;;
2022/10/11 01:22:00;;;;;;;1.5;1.5;;;;;;;7.8;100.0;102240;;;;
2022/10/11 01:23:10;;;;;;;1.5;1.5;;;;;;;7.8;100.0;102240;;;;
2022/10/11 01:24:10;;;;;;;1.5;1.5;;;;;;;7.8;100.0;102240;;;;
2022/10/11 01:25:10;;;;;;;1.5;1.5;;;;;;;7.8;100.0;102240;;;;
2022/10/11 01:26:03;;;;;;;1.5;1.5;;;;;;;7.8;100.0;102240;;;;
2022/10/11 01:27:00;;;;;;;1.5;1.5;;;;;;;7.7;100.0;102240;;;;
2022/10/11 01:28:10;;;;;;;1.5;1.5;;;;;;;7.7;100.0;102240;;;;
2022/10/11 01:29:07;;;;;;;1.5;1.5;;;;;;;7.7;100.0;102250;;;;
2022/10/11 01:30:10;;;;;;;1.5;1.5;;;;;;;7.7;100.0;102250;;;;
2022/10/11 01:31:06;;;;;;;1.3;1.3;;;;;;;7.7;100.0;102250;;;;
2022/10/11 01:32:07;;;;;;;1.3;1.3;;;;;;;7.7;100.0;102250;;;;
2022/10/11 01:33:10;;;;;;;1.3;1.3;;;;;;;7.7;100.0;102250;;;;
2022/10/11 01:34:03;;;;;;;1.3;1.3;;;;;;;7.7;100.0;102250;;;;
2022/10/11 01:35:05;;;;;;;1.3;1.3;;;;;;;7.8;100.0;102250;;;;
2022/10/11 01:36:06;;;;;;;1.3;1.3;;;;;;;7.8;100.0;102250;;;;
2022/10/11 01:37:07;;;;;;;1.3;1.3;;;;;;;7.7;100.0;102250;;;;
2022/10/11 01:38:10;;;;;;;1.3;1.3;;;;;;;7.7;100.0;102250;;;;
2022/10/11 01:39:04;;;;;;;1.3;1.3;;;;;;;7.6;100.0;102250;;;;
2022/10/11 01:40:10;;;;;;;1.3;1.3;;;;;;;7.6;100.0;102250;;;;
2022/10/11 01:41:03;;;;;;;1.3;1.3;;;;;;;7.6;100.0;102250;;;;
2022/10/11 01:42:02;;;;;;;1.3;1.3;;;;;;;7.6;100.0;102250;;;;
2022/10/11 01:43:01;;;;;;;1.3;1.3;;;;;;;7.7;100.0;102250;;;;
2022/10/11 01:44:01;;;;;;;1.3;1.3;;;;;;;7.7;100.0;102250;;;;
2022/10/11 01:45:00;;;;;;;1.3;1.3;;;;;;;7.6;100.0;102250;;;;
2022/10/11 01:46:01;;;;;;;1.3;1.3;;;;;;;7.6;100.0;102250;;;;
2022/10/11 01:47:00;;;;;;;1.3;1.3;;;;;;;7.1;100.0;102250;;;;
2022/10/11 01:48:02;;;;;;;1.3;1.3;;;;;;;7.1;100.0;102250;;;;
2022/10/11 01:49:01;;;;;;;1.3;1.3;;;;;;;7.2;100.0;102250;;;;
2022/10/11 01:50:00;;;;;;;1.3;1.3;;;;;;;7.2;100.0;102250;;;;
2022/10/11 01:51:01;;;;;;;1.3;1.3;;;;;;;7.0;100.0;102250;;;;
2022/10/11 01:52:03;;;;;;;1.3;1.3;;;;;;;7.0;100.0;102250;;;;
2022/10/11 01:53:05;;;;;;;1.3;1.3;;;;;;;7.0;100.0;102250;;;;
2022/10/11 01:54:00;;;;;;;1.3;1.3;;;;;;;7.0;100.0;102250;;;;
2022/10/11 01:55:10;;;;;;;1.3;1.3;;;;;;;7.2;100.0;102250;;;;
2022/10/11 01:56:10;;;;;;;1.3;1.3;;;;;;;7.2;100.0;102250;;;;
2022/10/11 01:57:00;;;;;;;1.3;1.3;;;;;;;7.4;100.0;102250;;;;
2022/10/11 01:58:00;;;;;;;1.3;1.3;;;;;;;7.4;100.0;102250;;;;
2022/10/11 01:59:10;;;;;;;1.3;1.3;;;;;;;7.4;100.0;102250;;;;
2022/10/11 02:00:02;;;;;;;1.3;1.3;;;;;;;7.4;100.0;102250;;;;
2022/10/11 02:01:00;;;;;;;1.3;1.3;;;;;;;7.5;100.0;102250;;;;
2022/10/11 02:02:07;;;;;;;1.3;1.3;;;;;;;7.5;100.0;102250;;;;
2022/10/11 02:03:03;;;;;;;1.3;1.3;;;;;;;7.4;100.0;102250;;;;
2022/10/11 02:04:03;;;;;;;1.3;1.3;;;;;;;7.4;100.0;102250;;;;
2022/10/11 02:05:10;;;;;;;1.3;1.3;;;;;;;7.4;100.0;102250;;;;
2022/10/11 02:06:08;;;;;;;1.3;1.3;;;;;;;7.4;100.0;102250;;;;
2022/10/11 02:07:05;;;;;;;1.3;1.3;;;;;;;7.4;100.0;102250;;;;
2022/10/11 02:08:01;;;;;;;1.3;1.3;;;;;;;7.4;100.0;102250;;;;
2022/10/11 02:09:10;;;;;;;1.3;1.3;;;;;;;7.4;100.0;102260;;;;
2022/10/11 02:10:10;;;;;;;1.3;1.3;;;;;;;7.4;100.0;102260;;;;
2022/10/11 02:11:05;;;;;;;1.5;1.5;;;;;;;7.4;100.0;102260;;;;
2022/10/11 02:12:06;;;;;;;1.5;1.5;;;;;;;7.4;100.0;102260;;;;
2022/10/11 02:13:04;;;;;;;1.5;1.5;;;;;;;7.3;100.0;102260;;;;
2022/10/11 02:14:10;;;;;;;1.5;1.5;;;;;;;7.3;100.0;102260;;;;
2022/10/11 02:15:02;;;;;;;1.5;1.5;;;;;;;7.3;100.0;102260;;;;
2022/10/11 02:16:01;;;;;;;1.5;1.5;;;;;;;7.3;100.0;102260;;;;
2022/10/11 02:17:06;;;;;;;1.5;1.5;;;;;;;7.3;100.0;102260;;;;
2022/10/11 02:18:02;;;;;;;1.5;1.5;;;;;;;7.3;100.0;102260;;;;
2022/10/11 02:19:03;;;;;;;1.5;1.5;;;;;;;7.3;100.0;102270;;;;
2022/10/11 02:20:02;;;;;;;1.5;1.5;;;;;;;7.3;100.0;102270;;;;
2022/10/11 02:21:02;;;;;;;1.5;1.5;;;;;;;7.3;100.0;102260;;;;
2022/10/11 02:22:02;;;;;;;1.5;1.5;;;;;;;7.3;100.0;102260;;;;
2022/10/11 02:23:04;;;;;;;1.5;1.5;;;;;;;7.3;100.0;102270;;;;
2022/10/11 02:24:05;;;;;;;1.5;1.5;;;;;;;7.3;100.0;102270;;;;
2022/10/11 02:25:01;;;;;;;1.5;1.5;;;;;;;7.2;100.0;102270;;;;
2022/10/11 02:26:04;;;;;;;1.5;1.5;;;;;;;7.2;100.0;102270;;;;
2022/10/11 02:27:01;;;;;;;1.5;1.5;;;;;;;7.1;100.0;102270;;;;
2022/10/11 02:28:01;;;;;;;1.5;1.5;;;;;;;7.1;100.0;102270;;;;
2022/10/11 02:29:03;;;;;;;1.5;1.5;;;;;;;7.2;100.0;102270;;;;
2022/10/11 02:30:02;;;;;;;1.5;1.5;;;;;;;7.2;100.0;102270;;;;
2022/10/11 02:31:02;;;;;;;1.6;1.6;;;;;;;7.1;100.0;102270;;;;
2022/10/11 02:32:00;;;;;;;1.6;1.6;;;;;;;7.1;100.0;102270;;;;
2022/10/11 02:33:02;;;;;;;1.6;1.6;;;;;;;7.2;100.0;102280;;;;
2022/10/11 02:34:00;;;;;;;1.6;1.6;;;;;;;7.2;100.0;102280;;;;
2022/10/11 02:35:01;;;;;;;1.6;1.6;;;;;;;7.2;100.0;102280;;;;
2022/10/11 02:36:04;;;;;;;1.6;1.6;;;;;;;7.2;100.0;102280;;;;
2022/10/11 02:37:03;;;;;;;1.6;1.6;;;;;;;7.1;100.0;102270;;;;
2022/10/11 02:38:10;;;;;;;1.6;1.6;;;;;;;7.1;100.0;102270;;;;
2022/10/11 02:39:06;;;;;;;1.6;1.6;;;;;;;7.1;100.0;102280;;;;
2022/10/11 02:40:01;;;;;;;1.6;1.6;;;;;;;7.1;100.0;102280;;;;
2022/10/11 02:41:04;;;;;;;1.6;1.6;;;;;;;7.1;100.0;102280;;;;
2022/10/11 02:42:01;;;;;;;1.6;1.6;;;;;;;7.1;100.0;102280;;;;
2022/10/11 02:43:03;;;;;;;1.6;1.6;;;;;;;7.1;100.0;102280;;;;
2022/10/11 02:44:07;;;;;;;1.6;1.6;;;;;;;7.1;100.0;102280;;;;
2022/10/11 02:45:03;;;;;;;1.6;1.6;;;;;;;7.0;100.0;102280;;;;
2022/10/11 02:46:01;;;;;;;1.6;1.6;;;;;;;7.0;100.0;102280;;;;
2022/10/11 02:47:00;;;;;;;1.6;1.6;;;;;;;7.1;100.0;102280;;;;
2022/10/11 02:48:00;;;;;;;1.6;1.6;;;;;;;7.1;100.0;102280;;;;
2022/10/11 02:49:00;;;;;;;1.6;1.6;;;;;;;7.0;100.0;102280;;;;
2022/10/11 02:50:00;;;;;;;1.6;1.6;;;;;;;7.0;100.0;102280;;;;
2022/10/11 02:51:01;;;;;;;3.1;2.1;;;;;;;7.0;100.0;102280;;;;
2022/10/11 02:52:02;;;;;;;3.1;2.1;;;;;;;7.0;100.0;102280;;;;
2022/10/11 02:53:00;;;;;;;3.1;2.1;;;;;;;7.0;100.0;102280;;;;
2022/10/11 02:54:00;;;;;;;3.1;2.1;;;;;;;7.0;100.0;102280;;;;
2022/10/11 02:55:00;;;;;;;3.1;2.1;;;;;;;7.0;100.0;102280;;;;
2022/10/11 02:56:00;;;;;;;3.1;2.1;;;;;;;7.0;100.0;102280;;;;
2022/10/11 02:57:00;;;;;;;3.1;2.1;;;;;;;7.0;100.0;102280;;;;
2022/10/11 02:58:00;;;;;;;3.1;2.1;;;;;;;7.0;100.0;102280;;;;
2022/10/11 02:59:00;;;;;;;3.1;2.1;;;;;;;7.0;100.0;102280;;;;
2022/10/11 03:00:00;;;;;;;3.1;2.1;;;;;;;7.0;100.0;102280;;;;
2022/10/11 03:01:00;;;;;;;3.1;2.1;;;;;;;7.0;100.0;102280;;;;
2022/10/11 03:02:00;;;;;;;3.1;2.1;;;;;;;7.0;100.0;102280;;;;
2022/10/11 03:03:00;;;;;;;3.1;2.1;;;;;;;7.0;100.0;102280;;;;
2022/10/11 03:04:00;;;;;;;3.1;2.1;;;;;;;7.0;100.0;102280;;;;
2022/10/11 03:05:00;;;;;;;3.1;2.1;;;;;;;6.8;100.0;102280;;;;
2022/10/11 03:06:01;;;;;;;3.1;2.1;;;;;;;6.8;100.0;102280;;;;
2022/10/11 03:07:00;;;;;;;3.1;2.1;;;;;;;6.9;100.0;102290;;;;
2022/10/11 03:08:00;;;;;;;3.1;2.1;;;;;;;6.9;100.0;102290;;;;
2022/10/11 03:09:00;;;;;;;3.1;2.1;;;;;;;6.8;100.0;102290;;;;
2022/10/11 03:10:00;;;;;;;3.1;2.1;;;;;;;6.8;100.0;102290;;;;
2022/10/11 03:11:00;;;;;;;1.5;1.5;;;;;;;6.8;100.0;102290;;;;
2022/10/11 03:12:00;;;;;;;1.5;1.5;;;;;;;6.8;100.0;102290;;;;
2022/10/11 03:13:00;;;;;;;1.5;1.5;;;;;;;6.8;100.0;102290;;;;
2022/10/11 03:14:00;;;;;;;1.5;1.5;;;;;;;6.8;100.0;102290;;;;
2022/10/11 03:15:00;;;;;;;1.5;1.5;;;;;;;6.9;100.0;102290;;;;
2022/10/11 03:16:03;;;;;;;1.5;1.5;;;;;;;6.9;100.0;102290;;;;
2022/10/11 03:17:10;;;;;;;1.5;1.5;;;;;;;6.8;100.0;102280;;;;
2022/10/11 03:18:00;;;;;;;1.5;1.5;;;;;;;6.8;100.0;102280;;;;
2022/10/11 03:19:01;;;;;;;1.5;1.5;;;;;;;6.8;100.0;102280;;;;
2022/10/11 03:20:00;;;;;;;1.5;1.5;;;;;;;6.8;100.0;102280;;;;
2022/10/11 03:21:00;;;;;;;1.5;1.5;;;;;;;6.8;100.0;102290;;;;
2022/10/11 03:22:00;;;;;;;1.5;1.5;;;;;;;6.8;100.0;102290;;;;
2022/10/11 03:23:00;;;;;;;1.5;1.5;;;;;;;6.8;100.0;102290;;;;
2022/10/11 03:24:00;;;;;;;1.5;1.5;;;;;;;6.8;100.0;102290;;;;
2022/10/11 03:25:04;;;;;;;1.5;1.5;;;;;;;6.8;100.0;102290;;;;
2022/10/11 03:26:00;;;;;;;1.5;1.5;;;;;;;6.8;100.0;102290;;;;
2022/10/11 03:27:00;;;;;;;1.5;1.5;;;;;;;6.8;100.0;102290;;;;
2022/10/11 03:28:00;;;;;;;1.5;1.5;;;;;;;6.8;100.0;102290;;;;
2022/10/11 03:29:00;;;;;;;1.5;1.5;;;;;;;6.8;100.0;102290;;;;
2022/10/11 03:30:00;;;;;;;1.5;1.5;;;;;;;6.8;100.0;102290;;;;
2022/10/11 03:31:00;;;;;;;1.9;1.9;;;;;;;6.8;100.0;102290;;;;
2022/10/11 03:32:00;;;;;;;1.9;1.9;;;;;;;6.8;100.0;102290;;;;
2022/10/11 03:33:00;;;;;;;1.9;1.9;;;;;;;6.8;100.0;102290;;;;
2022/10/11 03:34:00;;;;;;;1.9;1.9;;;;;;;6.8;100.0;102290;;;;
2022/10/11 03:35:00;;;;;;;1.9;1.9;;;;;;;6.7;100.0;102290;;;;
2022/10/11 03:36:00;;;;;;;1.9;1.9;;;;;;;6.7;100.0;102290;;;;
2022/10/11 03:37:00;;;;;;;1.9;1.9;;;;;;;6.7;100.0;102290;;;;
2022/10/11 03:38:00;;;;;;;1.9;1.9;;;;;;;6.7;100.0;102290;;;;
2022/10/11 03:39:01;;;;;;;1.9;1.9;;;;;;;6.7;100.0;102290;;;;
2022/10/11 03:40:00;;;;;;;1.9;1.9;;;;;;;6.7;100.0;102290;;;;
2022/10/11 03:41:00;;;;;;;1.9;1.9;;;;;;;6.6;100.0;102290;;;;
2022/10/11 03:42:00;;;;;;;1.9;1.9;;;;;;;6.6;100.0;102290;;;;
2022/10/11 03:43:00;;;;;;;1.9;1.9;;;;;;;6.6;100.0;102290;;;;
2022/10/11 03:44:00;;;;;;;1.9;1.9;;;;;;;6.6;100.0;102290;;;;
2022/10/11 03:45:03;;;;;;;1.9;1.9;;;;;;;6.6;100.0;102300;;;;
2022/10/11 03:46:00;;;;;;;1.9;1.9;;;;;;;6.6;100.0;102300;;;;
2022/10/11 03:47:00;;;;;;;1.9;1.9;;;;;;;6.6;100.0;102300;;;;
2022/10/11 03:48:00;;;;;;;1.9;1.9;;;;;;;6.6;100.0;102300;;;;
2022/10/11 03:49:00;;;;;;;1.9;1.9;;;;;;;6.6;100.0;102300;;;;
2022/10/11 03:50:00;;;;;;;1.9;1.9;;;;;;;6.6;100.0;102300;;;;
2022/10/11 03:51:00;;;;;;;2.0;2.0;;;;;;;6.6;100.0;102310;;;;
2022/10/11 03:52:00;;;;;;;2.0;2.0;;;;;;;6.6;100.0;102310;;;;
2022/10/11 03:53:00;;;;;;;2.0;2.0;;;;;;;6.6;100.0;102310;;;;
2022/10/11 03:54:00;;;;;;;2.0;2.0;;;;;;;6.6;100.0;102310;;;;
2022/10/11 03:55:00;;;;;;;2.0;2.0;;;;;;;6.6;100.0;102300;;;;
2022/10/11 03:56:06;;;;;;;2.0;2.0;;;;;;;6.6;100.0;102300;;;;
2022/10/11 03:57:00;;;;;;;2.0;2.0;;;;;;;6.6;100.0;102300;;;;
2022/10/11 03:58:00;;;;;;;2.0;2.0;;;;;;;6.6;100.0;102300;;;;
2022/10/11 03:59:01;;;;;;;2.0;2.0;;;;;;;6.6;100.0;102310;;;;
2022/10/11 04:00:00;;;;;;;2.0;2.0;;;;;;;6.6;100.0;102310;;;;
2022/10/11 04:01:00;;;;;;;2.0;2.0;;;;;;;6.5;100.0;102310;;;;
2022/10/11 04:02:00;;;;;;;2.0;2.0;;;;;;;6.5;100.0;102310;;;;
2022/10/11 04:03:02;;;;;;;2.0;2.0;;;;;;;6.5;100.0;102310;;;;
2022/10/11 04:04:00;;;;;;;2.0;2.0;;;;;;;6.5;100.0;102310;;;;
2022/10/11 04:05:00;;;;;;;2.0;2.0;;;;;;;6.4;100.0;102310;;;;
2022/10/11 04:06:00;;;;;;;2.0;2.0;;;;;;;6.4;100.0;102310;;;;
2022/10/11 04:07:00;;;;;;;2.0;2.0;;;;;;;6.4;100.0;102310;;;;
2022/10/11 04:08:00;;;;;;;2.0;2.0;;;;;;;6.4;100.0;102310;;;;
2022/10/11 04:09:00;;;;;;;2.0;2.0;;;;;;;6.4;100.0;102310;;;;
2022/10/11 04:10:00;;;;;;;2.0;2.0;;;;;;;6.4;100.0;102310;;;;
2022/10/11 04:11:00;;;;;;;1.6;1.6;;;;;;;6.3;100.0;102310;;;;
2022/10/11 04:12:00;;;;;;;1.6;1.6;;;;;;;6.3;100.0;102310;;;;
2022/10/11 04:13:00;;;;;;;1.6;1.6;;;;;;;6.4;100.0;102320;;;;
2022/10/11 04:14:01;;;;;;;1.6;1.6;;;;;;;6.4;100.0;102320;;;;
2022/10/11 04:15:00;;;;;;;1.6;1.6;;;;;;;6.4;100.0;102320;;;;
2022/10/11 04:16:00;;;;;;;1.6;1.6;;;;;;;6.4;100.0;102320;;;;
2022/10/11 04:17:00;;;;;;;1.6;1.6;;;;;;;6.4;100.0;102310;;;;
2022/10/11 04:18:00;;;;;;;1.6;1.6;;;;;;;6.4;100.0;102310;;;;
2022/10/11 04:19:00;;;;;;;1.6;1.6;;;;;;;6.4;100.0;102320;;;;
2022/10/11 04:20:00;;;;;;;1.6;1.6;;;;;;;6.4;100.0;102320;;;;
2022/10/11 04:21:00;;;;;;;1.6;1.6;;;;;;;6.4;100.0;102320;;;;
2022/10/11 04:22:00;;;;;;;1.6;1.6;;;;;;;6.4;100.0;102320;;;;
2022/10/11 04:23:00;;;;;;;1.6;1.6;;;;;;;6.4;100.0;102320;;;;
2022/10/11 04:24:00;;;;;;;1.6;1.6;;;;;;;6.4;100.0;102320;;;;
2022/10/11 04:25:00;;;;;;;1.6;1.6;;;;;;;6.3;100.0;102320;;;;
2022/10/11 04:26:03;;;;;;;1.6;1.6;;;;;;;6.3;100.0;102320;;;;
2022/10/11 04:27:00;;;;;;;1.6;1.6;;;;;;;6.3;100.0;102330;;;;
2022/10/11 04:28:00;;;;;;;1.6;1.6;;;;;;;6.3;100.0;102330;;;;
2022/10/11 04:29:00;;;;;;;1.6;1.6;;;;;;;6.3;100.0;102330;;;;
2022/10/11 04:30:00;;;;;;;1.7;1.7;;;;;;;6.3;100.0;102330;;;;
2022/10/11 04:31:00;;;;;;;1.7;1.7;;;;;;;6.3;100.0;102330;;;;
2022/10/11 04:32:00;;;;;;;1.7;1.7;;;;;;;6.3;100.0;102330;;;;
2022/10/11 04:33:00;;;;;;;1.7;1.7;;;;;;;6.4;100.0;102340;;;;
2022/10/11 04:34:00;;;;;;;1.7;1.7;;;;;;;6.4;100.0;102340;;;;
2022/10/11 04:35:00;;;;;;;1.7;1.7;;;;;;;6.3;100.0;102340;;;;
2022/10/11 04:36:00;;;;;;;1.7;1.7;;;;;;;6.3;100.0;102340;;;;
2022/10/11 04:37:00;;;;;;;1.7;1.7;;;;;;;6.3;100.0;102340;;;;
2022/10/11 04:38:00;;;;;;;1.7;1.7;;;;;;;6.3;100.0;102340;;;;
2022/10/11 04:39:00;;;;;;;1.7;1.7;;;;;;;6.3;100.0;102340;;;;
2022/10/11 04:40:00;;;;;;;1.7;1.7;;;;;;;6.3;100.0;102340;;;;
2022/10/11 04:41:08;;;;;;;1.7;1.7;;;;;;;6.3;100.0;102340;;;;
2022/10/11 04:42:00;;;;;;;1.7;1.7;;;;;;;6.3;100.0;102340;;;;
2022/10/11 04:43:00;;;;;;;1.7;1.7;;;;;;;6.2;100.0;102340;;;;
2022/10/11 04:44:00;;;;;;;1.7;1.7;;;;;;;6.2;100.0;102340;;;;
2022/10/11 04:45:00;;;;;;;1.7;1.7;;;;;;;6.2;100.0;102340;;;;
2022/10/11 04:46:00;;;;;;;1.7;1.7;;;;;;;6.2;100.0;102340;;;;
2022/10/11 04:47:00;;;;;;;1.7;1.7;;;;;;;6.2;100.0;102340;;;;
2022/10/11 04:48:00;;;;;;;1.7;1.7;;;;;;;6.2;100.0;102340;;;;
2022/10/11 04:49:00;;;;;;;1.7;1.7;;;;;;;6.1;100.0;102350;;;;
2022/10/11 04:50:00;;;;;;;1.6;1.6;;;;;;;6.1;100.0;102350;;;;
2022/10/11 04:51:00;;;;;;;1.6;1.6;;;;;;;6.2;100.0;102350;;;;
2022/10/11 04:52:00;;;;;;;1.6;1.6;;;;;;;6.2;100.0;102350;;;;
2022/10/11 04:53:00;;;;;;;1.6;1.6;;;;;;;6.0;100.0;102350;;;;
2022/10/11 04:54:00;;;;;;;1.6;1.6;;;;;;;6.0;100.0;102350;;;;
2022/10/11 04:55:00;;;;;;;1.6;1.6;;;;;;;6.1;100.0;102350;;;;
2022/10/11 04:56:02;;;;;;;1.6;1.6;;;;;;;6.1;100.0;102350;;;;
2022/10/11 04:57:00;;;;;;;1.6;1.6;;;;;;;6.1;100.0;102340;;;;
2022/10/11 04:58:01;;;;;;;1.6;1.6;;;;;;;6.1;100.0;102340;;;;
2022/10/11 04:59:00;;;;;;;1.6;1.6;;;;;;;6.0;100.0;102350;;;;
2022/10/11 05:00:00;;;;;;;1.6;1.6;;;;;;;6.0;100.0;102350;;;;
2022/10/11 05:01:00;;;;;;;1.6;1.6;;;;;;;6.0;100.0;102350;;;;
2022/10/11 05:02:00;;;;;;;1.6;1.6;;;;;;;6.0;100.0;102350;;;;
2022/10/11 05:03:00;;;;;;;1.6;1.6;;;;;;;6.1;100.0;102360;;;;
2022/10/11 05:04:00;;;;;;;1.6;1.6;;;;;;;6.1;100.0;102360;;;;
2022/10/11 05:05:00;;;;;;;1.6;1.6;;;;;;;6.1;100.0;102360;;;;
2022/10/11 05:06:05;;;;;;;1.6;1.6;;;;;;;6.1;100.0;102360;;;;
2022/10/11 05:07:00;;;;;;;1.6;1.6;;;;;;;6.1;100.0;102360;;;;
2022/10/11 05:08:00;;;;;;;1.6;1.6;;;;;;;6.1;100.0;102360;;;;
2022/10/11 05:09:00;;;;;;;1.6;1.6;;;;;;;6.1;100.0;102350;;;;
2022/10/11 05:10:00;;;;;;;1.7;1.7;;;;;;;6.1;100.0;102350;;;;
2022/10/11 05:11:02;;;;;;;1.7;1.7;;;;;;;6.1;100.0;102350;;;;
2022/10/11 05:12:00;;;;;;;1.7;1.7;;;;;;;6.1;100.0;102350;;;;
2022/10/11 05:13:00;;;;;;;1.7;1.7;;;;;;;6.0;100.0;102360;;;;
2022/10/11 05:14:00;;;;;;;1.7;1.7;;;;;;;6.0;100.0;102360;;;;
2022/10/11 05:15:00;;;;;;;1.7;1.7;;;;;;;6.0;100.0;102360;;;;
2022/10/11 05:16:00;;;;;;;1.7;1.7;;;;;;;6.0;100.0;102360;;;;
2022/10/11 05:17:00;;;;;;;1.7;1.7;;;;;;;6.0;100.0;102360;;;;
2022/10/11 05:18:00;;;;;;;1.7;1.7;;;;;;;6.0;100.0;102360;;;;
2022/10/11 05:19:00;;;;;;;1.7;1.7;;;;;;;6.0;100.0;102360;;;;
2022/10/11 05:20:00;;;;;;;1.7;1.7;;;;;;;6.0;100.0;102360;;;;
2022/10/11 05:21:03;;;;;;;1.7;1.7;;;;;;;6.0;100.0;102360;;;;
2022/10/11 05:22:00;;;;;;;1.7;1.7;;;;;;;6.0;100.0;102360;;;;
2022/10/11 05:23:00;;;;;;;1.7;1.7;;;;;;;5.9;100.0;102360;;;;
2022/10/11 05:24:00;;;;;;;1.7;1.7;;;;;;;5.9;100.0;102360;;;;
2022/10/11 05:25:00;;;;;;;1.7;1.7;;;;;;;5.8;100.0;102360;;;;
2022/10/11 05:26:00;;;;;;;1.7;1.7;;;;;;;5.8;100.0;102360;;;;
2022/10/11 05:27:03;;;;;;;1.7;1.7;;;;;;;5.9;100.0;102360;;;;
2022/10/11 05:28:00;;;;;;;1.7;1.7;;;;;;;5.9;100.0;102360;;;;
2022/10/11 05:29:00;;;;;;;1.7;1.7;;;;;;;5.9;100.0;102360;;;;
2022/10/11 05:30:00;;;;;;;1.9;1.9;;;;;;;5.9;100.0;102360;;;;
2022/10/11 05:31:00;;;;;;;1.9;1.9;;;;;;;5.9;100.0;102370;;;;
2022/10/11 05:32:00;;;;;;;1.9;1.9;;;;;;;5.9;100.0;102370;;;;
2022/10/11 05:33:00;;;;;;;1.9;1.9;;;;;;;5.9;100.0;102370;;;;
2022/10/11 05:34:00;;;;;;;1.9;1.9;;;;;;;5.9;100.0;102370;;;;
2022/10/11 05:35:00;;;;;;;1.9;1.9;;;;;;;5.9;100.0;102370;;;;
2022/10/11 05:36:00;;;;;;;1.9;1.9;;;;;;;5.9;100.0;102370;;;;
2022/10/11 05:37:00;;;;;;;1.9;1.9;;;;;;;5.9;100.0;102370;;;;
2022/10/11 05:38:00;;;;;;;1.9;1.9;;;;;;;5.9;100.0;102370;;;;
2022/10/11 05:39:00;;;;;;;1.9;1.9;;;;;;;5.9;100.0;102370;;;;
2022/10/11 05:40:00;;;;;;;1.9;1.9;;;;;;;5.9;100.0;102370;;;;
2022/10/11 05:41:00;;;;;;;1.9;1.9;;;;;;;5.8;100.0;102370;;;;
2022/10/11 05:42:00;;;;;;;1.9;1.9;;;;;;;5.8;100.0;102370;;;;
2022/10/11 05:43:00;;;;;;;1.9;1.9;;;;;;;5.8;100.0;102370;;;;
2022/10/11 05:44:00;;;;;;;1.9;1.9;;;;;;;5.8;100.0;102370;;;;
2022/10/11 05:45:00;;;;;;;1.9;1.9;;;;;;;5.8;100.0;102370;;;;
2022/10/11 05:46:00;;;;;;;1.9;1.9;;;;;;;5.8;100.0;102370;;;;
2022/10/11 05:47:00;;;;;;;1.9;1.9;;;;;;;5.8;100.0;102370;;;;
2022/10/11 05:48:00;;;;;;;1.9;1.9;;;;;;;5.8;100.0;102370;;;;
2022/10/11 05:49:00;;;;;;;1.9;1.9;;;;;;;5.7;100.0;102370;;;;
2022/10/11 05:50:00;;;;;;;2.0;2.0;;;;;;;5.7;100.0;102370;;;;
2022/10/11 05:51:01;;;;;;;2.0;2.0;;;;;;;5.8;100.0;102380;;;;
2022/10/11 05:52:00;;;;;;;2.0;2.0;;;;;;;5.8;100.0;102380;;;;
2022/10/11 05:53:00;;;;;;;2.0;2.0;;;;;;;5.8;100.0;102380;;;;
2022/10/11 05:54:00;;;;;;;2.0;2.0;;;;;;;5.8;100.0;102380;;;;
2022/10/11 05:55:02;;;;;;;2.0;2.0;;;;;;;5.8;100.0;102380;;;;
2022/10/11 05:56:00;;;;;;;2.0;2.0;;;;;;;5.8;100.0;102380;;;;
2022/10/11 05:57:00;;;;;;;2.0;2.0;;;;;;;5.8;100.0;102380;;;;
2022/10/11 05:58:00;;;;;;;2.0;2.0;;;;;;;5.8;100.0;102380;;;;
2022/10/11 05:59:02;;;;;;;2.0;2.0;;;;;;;5.8;100.0;102380;;;;
2022/10/11 06:00:00;;;;;;;2.0;2.0;;;;;;;5.8;100.0;102380;;;;
2022/10/11 06:01:00;;;;;;;2.0;2.0;;;;;;;5.7;100.0;102380;;;;
2022/10/11 06:02:00;;;;;;;2.0;2.0;;;;;;;5.7;100.0;102380;;;;
2022/10/11 06:03:00;;;;;;;2.0;2.0;;;;;;;5.7;100.0;102390;;;;
2022/10/11 06:04:00;;;;;;;2.0;2.0;;;;;;;5.7;100.0;102390;;;;
2022/10/11 06:05:00;;;;;;;2.0;2.0;;;;;;;5.7;100.0;102390;;;;
2022/10/11 06:06:01;;;;;;;2.0;2.0;;;;;;;5.7;100.0;102390;;;;
2022/10/11 06:07:00;;;;;;;2.0;2.0;;;;;;;5.8;100.0;102390;;;;
2022/10/11 06:08:00;;;;;;;2.0;2.0;;;;;;;5.8;100.0;102390;;;;
2022/10/11 06:09:00;;;;;;;2.0;2.0;;;;;;;5.8;100.0;102400;;;;
2022/10/11 06:10:00;;;;;;;1.8;1.8;;;;;;;5.8;100.0;102400;;;;
2022/10/11 06:11:12;;;;;;;1.8;1.8;;;;;;;5.6;100.0;102400;;;;
2022/10/11 06:12:00;;;;;;;1.8;1.8;;;;;;;5.6;100.0;102400;;;;
2022/10/11 06:13:00;;;;;;;1.8;1.8;;;;;;;5.7;100.0;102390;;;;
2022/10/11 06:14:00;;;;;;;1.8;1.8;;;;;;;5.7;100.0;102390;;;;
2022/10/11 06:15:00;;;;;;;1.8;1.8;;;;;;;5.7;100.0;102400;;;;
2022/10/11 06:16:03;;;;;;;1.8;1.8;;;;;;;5.7;100.0;102400;;;;
2022/10/11 06:17:00;;;;;;;1.8;1.8;;;;;;;5.7;100.0;102400;;;;
2022/10/11 06:18:00;;;;;;;1.8;1.8;;;;;;;5.7;100.0;102400;;;;
2022/10/11 06:19:00;;;;;;;1.8;1.8;;;;;;;5.7;100.0;102400;;;;
2022/10/11 06:20:00;;;;;;;1.8;1.8;;;;;;;5.7;100.0;102400;;;;
2022/10/11 06:21:00;;;;;;;1.8;1.8;;;;;;;5.7;100.0;102410;;;;
2022/10/11 06:22:00;;;;;;;1.8;1.8;;;;;;;5.7;100.0;102410;;;;
2022/10/11 06:23:00;;;;;;;1.8;1.8;;;;;;;5.7;100.0;102400;;;;
2022/10/11 06:24:01;;;;;;;1.8;1.8;;;;;;;5.7;100.0;102400;;;;
2022/10/11 06:25:00;;;;;;;1.8;1.8;;;;;;;5.7;100.0;102410;;;;
2022/10/11 06:26:04;;;;;;;1.8;1.8;;;;;;;5.7;100.0;102410;;;;
2022/10/11 06:27:00;;;;;;;1.8;1.8;;;;;;;5.7;100.0;102410;;;;
2022/10/11 06:28:00;;;;;;;1.8;1.8;;;;;;;5.7;100.0;102410;;;;
2022/10/11 06:29:00;;;;;;;1.8;1.8;;;;;;;5.8;100.0;102410;;;;